createdAt,value
2018-01-20T00:02:26.369Z,85.40
2018-01-20T00:04:53.816Z,85.07
2018-01-20T00:07:21.492Z,85.69
2018-01-20T00:10:00.877Z,85.74
2018-01-20T00:12:28.340Z,85.44
2018-01-20T00:14:55.783Z,85.22
2018-01-20T00:17:23.228Z,85.47
2018-01-20T00:19:50.713Z,86.11
2018-01-20T00:22:25.018Z,86.00
2018-01-20T00:24:58.157Z,85.68
2018-01-20T00:27:25.613Z,85.50
2018-01-20T00:29:53.062Z,85.62
2018-01-20T00:32:20.522Z,85.28
2018-01-20T00:34:47.960Z,84.68
2018-01-20T00:37:15.452Z,85.03
2018-01-20T00:39:42.985Z,85.98
2018-01-20T00:42:10.465Z,85.67
2018-01-20T00:44:37.948Z,84.71
2018-01-20T00:47:05.399Z,85.54
2018-01-20T00:49:33.237Z,85.39
2018-01-20T00:52:00.677Z,86.06
2018-01-20T00:54:28.121Z,85.56
2018-01-20T00:56:55.584Z,85.17
2018-01-20T00:59:23.022Z,85.28
2018-01-20T01:01:50.592Z,85.70
2018-01-20T01:04:18.034Z,86.12
2018-01-20T01:06:45.477Z,86.68
2018-01-20T01:09:12.956Z,86.79
2018-01-20T01:11:40.402Z,87.01
2018-01-20T01:14:07.869Z,87.00
2018-01-20T01:16:35.308Z,86.89
2018-01-20T01:19:02.745Z,87.29
2018-01-20T01:21:30.231Z,86.96
2018-01-20T01:23:57.675Z,87.23
2018-01-20T01:26:25.161Z,87.17
2018-01-20T01:28:52.596Z,86.82
2018-01-20T01:31:20.033Z,87.06
2018-01-20T01:33:47.489Z,87.42
2018-01-20T01:36:14.932Z,87.84
2018-01-20T01:38:42.549Z,87.96
2018-01-20T01:41:09.986Z,87.94
2018-01-20T01:43:37.430Z,88.22
2018-01-20T01:46:04.886Z,87.67
2018-01-20T01:48:32.328Z,87.94
2018-01-20T01:50:59.851Z,88.15
2018-01-20T01:53:27.287Z,87.49
2018-01-20T01:55:54.733Z,87.95
2018-01-20T01:58:22.197Z,87.44
2018-01-20T02:00:49.635Z,87.80
2018-01-20T02:03:17.353Z,87.53
2018-01-20T02:05:44.792Z,87.40
2018-01-20T02:08:12.228Z,87.68
2018-01-20T02:10:39.684Z,87.08
2018-01-20T02:13:07.656Z,87.62
2018-01-20T02:15:35.136Z,87.78
2018-01-20T02:18:02.577Z,87.62
2018-01-20T02:20:30.041Z,87.19
2018-01-20T02:22:58.134Z,87.46
2018-01-20T02:25:25.803Z,86.79
2018-01-20T02:27:53.260Z,87.17
2018-01-20T02:30:20.709Z,87.16
2018-01-20T02:32:48.148Z,87.72
2018-01-20T02:35:15.604Z,87.06
2018-01-20T02:37:43.037Z,86.64
2018-01-20T02:40:10.844Z,87.58
2018-01-20T02:42:38.309Z,87.29
2018-01-20T02:45:05.740Z,88.07
2018-01-20T02:47:33.224Z,87.44
2018-01-20T02:50:00.657Z,88.26
2018-01-20T02:52:28.433Z,88.04
2018-01-20T02:54:55.875Z,87.87
2018-01-20T02:57:23.321Z,87.86
2018-01-20T02:59:50.778Z,87.53
2018-01-20T03:02:18.228Z,87.16
2018-01-20T03:04:45.697Z,87.65
2018-01-20T03:07:13.134Z,87.23
2018-01-20T03:09:40.570Z,86.95
2018-01-20T03:12:08.037Z,87.14
2018-01-20T03:14:35.483Z,87.51
2018-01-20T03:17:03.037Z,87.54
2018-01-20T03:19:30.481Z,87.58
2018-01-20T03:21:57.913Z,87.65
2018-01-20T03:24:25.381Z,87.72
2018-01-20T03:26:52.848Z,87.31
2018-01-20T03:29:20.314Z,87.60
2018-01-20T03:31:47.749Z,87.17
2018-01-20T03:34:15.181Z,87.44
2018-01-20T03:36:42.637Z,87.27
2018-01-20T03:39:10.073Z,87.03
2018-01-20T03:41:37.846Z,87.30
2018-01-20T03:44:05.276Z,87.73
2018-01-20T03:46:32.710Z,87.58
2018-01-20T03:49:00.169Z,87.07
2018-01-20T03:51:27.606Z,87.06
2018-01-20T03:53:55.368Z,87.24
2018-01-20T03:56:22.837Z,87.16
2018-01-20T03:58:50.260Z,87.20
2018-01-20T04:01:17.728Z,87.45
2018-01-20T04:03:45.165Z,86.84
2018-01-20T04:06:12.820Z,87.53
2018-01-20T04:08:40.259Z,87.43
2018-01-20T04:11:07.716Z,86.57
2018-01-20T04:13:35.186Z,87.05
2018-01-20T04:16:02.640Z,87.44
2018-01-20T04:18:30.205Z,88.19
2018-01-20T04:20:57.649Z,87.67
2018-01-20T04:23:25.106Z,87.52
2018-01-20T04:25:52.562Z,87.40
2018-01-20T04:28:19.992Z,87.38
2018-01-20T04:30:47.801Z,87.33
2018-01-20T04:33:15.257Z,87.52
2018-01-20T04:35:42.703Z,87.16
2018-01-20T04:38:10.223Z,86.96
2018-01-20T04:40:37.653Z,87.00
2018-01-20T04:43:05.283Z,86.83
2018-01-20T04:45:32.716Z,87.11
2018-01-20T04:48:00.160Z,86.65
2018-01-20T04:50:27.644Z,87.12
2018-01-20T04:52:55.077Z,86.53
2018-01-20T04:55:22.565Z,86.46
2018-01-20T04:57:50.026Z,87.09
2018-01-20T05:00:17.543Z,86.55
2018-01-20T05:02:45.013Z,86.94
2018-01-20T05:05:12.447Z,86.59
2018-01-20T05:07:39.933Z,86.53
2018-01-20T05:10:07.364Z,86.55
2018-01-20T05:12:34.829Z,86.71
2018-01-20T05:15:02.289Z,87.36
2018-01-20T05:17:29.729Z,87.56
2018-01-20T05:19:57.209Z,87.60
2018-01-20T05:22:24.643Z,87.46
2018-01-20T05:24:52.072Z,87.42
2018-01-20T05:27:19.536Z,87.44
2018-01-20T05:29:46.973Z,87.52
2018-01-20T05:32:14.473Z,87.68
2018-01-20T05:34:41.917Z,87.83
2018-01-20T05:37:09.460Z,87.73
2018-01-20T05:39:36.973Z,87.18
2018-01-20T05:42:04.406Z,86.92
2018-01-20T05:44:31.877Z,87.21
2018-01-20T05:46:59.313Z,87.02
2018-01-20T05:49:26.755Z,87.10
2018-01-20T05:51:54.212Z,86.94
2018-01-20T05:54:21.645Z,87.17
2018-01-20T05:56:49.408Z,88.13
2018-01-20T05:59:16.852Z,87.55
2018-01-20T06:01:44.285Z,87.46
2018-01-20T06:04:11.760Z,87.56
2018-01-20T06:06:39.226Z,87.69
2018-01-20T06:09:06.879Z,87.73
2018-01-20T06:11:34.316Z,87.85
2018-01-20T06:14:01.757Z,87.86
2018-01-20T06:16:29.233Z,88.35
2018-01-20T06:18:56.664Z,88.10
2018-01-20T06:21:24.365Z,87.38
2018-01-20T06:23:51.807Z,87.79
2018-01-20T06:26:19.257Z,87.61
2018-01-20T06:28:46.734Z,86.87
2018-01-20T06:31:14.172Z,86.43
2018-01-20T06:33:41.895Z,86.40
2018-01-20T06:36:09.332Z,86.77
2018-01-20T06:38:36.769Z,86.10
2018-01-20T06:41:04.228Z,86.22
2018-01-20T06:43:31.685Z,86.20
2018-01-20T06:45:59.343Z,85.70
2018-01-20T06:48:26.773Z,86.31
2018-01-20T06:50:54.214Z,85.90
2018-01-20T06:53:21.669Z,85.76
2018-01-20T06:55:49.101Z,86.05
2018-01-20T06:58:16.716Z,85.44
2018-01-20T07:00:44.157Z,85.83
2018-01-20T07:03:11.598Z,85.89
2018-01-20T07:05:39.048Z,85.66
2018-01-20T07:08:06.488Z,85.44
2018-01-20T07:10:34.110Z,84.92
2018-01-20T07:13:01.545Z,84.83
2018-01-20T07:15:28.977Z,85.52
2018-01-20T07:17:56.433Z,84.80
2018-01-20T07:20:23.867Z,84.69
2018-01-20T07:22:51.798Z,83.98
2018-01-20T07:25:19.345Z,83.78
2018-01-20T07:27:46.853Z,84.51
2018-01-20T07:30:14.307Z,84.23
2018-01-20T07:32:41.737Z,84.54
2018-01-20T07:35:09.491Z,85.17
2018-01-20T07:37:36.924Z,84.75
2018-01-20T07:40:10.070Z,85.90
2018-01-20T07:42:37.528Z,85.68
2018-01-20T07:45:04.964Z,85.94
2018-01-20T07:47:32.444Z,86.03
2018-01-20T07:49:59.884Z,85.83
2018-01-20T07:52:27.522Z,84.97
2018-01-20T07:54:54.972Z,85.16
2018-01-20T07:57:22.773Z,84.68
2018-01-20T07:59:50.259Z,84.60
2018-01-20T08:02:17.719Z,85.08
2018-01-20T08:04:45.525Z,84.69
2018-01-20T08:07:12.957Z,84.49
2018-01-20T08:09:40.413Z,84.42
2018-01-20T08:12:07.869Z,83.91
2018-01-20T08:14:35.317Z,84.73
2018-01-20T08:17:02.825Z,84.29
2018-01-20T08:19:30.265Z,84.47
2018-01-20T08:21:57.718Z,84.05
2018-01-20T08:24:25.180Z,83.64
2018-01-20T08:26:52.612Z,83.66
2018-01-20T08:29:20.086Z,83.90
2018-01-20T08:31:47.520Z,83.08
2018-01-20T08:34:14.957Z,83.98
2018-01-20T08:36:42.409Z,83.44
2018-01-20T08:39:09.840Z,83.32
2018-01-20T08:41:37.470Z,83.67
2018-01-20T08:44:04.932Z,83.71
2018-01-20T08:46:32.595Z,84.05
2018-01-20T08:49:00.097Z,83.92
2018-01-20T08:51:27.530Z,83.57
2018-01-20T08:53:56.102Z,84.12
2018-01-20T08:56:23.854Z,84.41
2018-01-20T08:58:51.296Z,84.47
2018-01-20T09:01:18.749Z,84.57
2018-01-20T09:03:46.192Z,84.47
2018-01-20T09:06:14.539Z,84.66
2018-01-20T09:08:41.993Z,84.14
2018-01-20T09:11:09.448Z,84.26
2018-01-20T09:13:36.925Z,84.68
2018-01-20T09:16:04.394Z,84.94
2018-01-20T09:18:32.090Z,85.17
2018-01-20T09:20:59.524Z,84.99
2018-01-20T09:23:26.965Z,84.90
2018-01-20T09:25:54.438Z,85.78
2018-01-20T09:28:21.877Z,84.95
2018-01-20T09:30:49.480Z,85.07
2018-01-20T09:33:16.928Z,85.28
2018-01-20T09:35:44.360Z,84.77
2018-01-20T09:38:11.820Z,84.94
2018-01-20T09:40:39.257Z,84.67
2018-01-20T09:43:06.856Z,85.25
2018-01-20T09:45:34.302Z,84.73
2018-01-20T09:48:01.780Z,84.61
2018-01-20T09:50:29.233Z,84.49
2018-01-20T09:52:56.936Z,85.29
2018-01-20T09:55:24.438Z,84.79
2018-01-20T09:57:51.873Z,84.12
2018-01-20T10:00:19.308Z,84.17
2018-01-20T10:02:46.777Z,84.47
2018-01-20T10:05:14.212Z,84.34
2018-01-20T10:07:41.677Z,84.24
2018-01-20T10:10:09.118Z,83.53
2018-01-20T10:12:36.945Z,83.49
2018-01-20T10:15:04.403Z,83.71
2018-01-20T10:17:31.840Z,83.52
2018-01-20T10:19:59.504Z,83.61
2018-01-20T10:22:26.936Z,83.64
2018-01-20T10:24:54.397Z,83.29
2018-01-20T10:27:21.861Z,83.86
2018-01-20T10:29:49.409Z,83.99
2018-01-20T10:32:17.252Z,83.86
2018-01-20T10:34:44.689Z,83.73
2018-01-20T10:37:12.123Z,83.71
2018-01-20T10:39:39.581Z,83.75
2018-01-20T10:42:07.029Z,84.00
2018-01-20T10:44:34.555Z,83.84
2018-01-20T10:47:01.993Z,84.19
2018-01-20T10:49:29.451Z,84.95
2018-01-20T10:51:56.922Z,83.93
2018-01-20T10:54:24.361Z,84.20
2018-01-20T10:56:51.991Z,84.49
2018-01-20T10:59:19.449Z,84.35
2018-01-20T11:01:46.881Z,84.07
2018-01-20T11:04:14.333Z,83.89
2018-01-20T11:06:41.773Z,83.87
2018-01-20T11:09:09.467Z,83.61
2018-01-20T11:11:36.929Z,83.54
2018-01-20T11:14:04.368Z,83.09
2018-01-20T11:16:31.820Z,83.27
2018-01-20T11:18:59.253Z,83.82
2018-01-20T11:21:26.856Z,83.32
2018-01-20T11:23:54.309Z,84.26
2018-01-20T11:26:24.946Z,84.03
2018-01-20T11:28:52.414Z,83.49
2018-01-20T11:31:19.876Z,83.97
2018-01-20T11:33:47.519Z,84.55
2018-01-20T11:36:14.988Z,84.44
2018-01-20T11:38:42.430Z,84.73
2018-01-20T11:41:09.883Z,84.86
2018-01-20T11:43:37.345Z,85.08
2018-01-20T11:46:05.011Z,85.31
2018-01-20T11:48:32.450Z,84.95
2018-01-20T11:50:59.893Z,85.22
2018-01-20T11:53:27.352Z,84.77
2018-01-20T11:55:54.793Z,84.70
2018-01-20T11:58:22.501Z,84.60
2018-01-20T12:00:49.949Z,84.55
2018-01-20T12:03:17.406Z,84.26
2018-01-20T12:05:45.181Z,84.21
2018-01-20T12:08:12.630Z,84.74
2018-01-20T12:10:40.492Z,84.36
2018-01-20T12:13:07.950Z,84.43
2018-01-20T12:15:35.379Z,84.58
2018-01-20T12:18:02.837Z,84.55
2018-01-20T12:20:30.285Z,85.19
2018-01-20T12:22:57.973Z,86.17
2018-01-20T12:25:25.408Z,85.80
2018-01-20T12:27:52.953Z,86.56
2018-01-20T12:30:20.409Z,86.17
2018-01-20T12:32:47.844Z,87.33
2018-01-20T12:35:15.297Z,87.55
2018-01-20T12:37:42.728Z,87.21
2018-01-20T12:40:10.173Z,88.28
2018-01-20T12:42:37.630Z,87.67
2018-01-20T12:45:05.065Z,87.86
2018-01-20T12:47:32.538Z,87.48
2018-01-20T12:49:59.968Z,87.57
2018-01-20T12:52:27.401Z,88.82
2018-01-20T12:54:54.874Z,89.58
2018-01-20T12:57:22.319Z,89.13
2018-01-20T12:59:50.043Z,88.80
2018-01-20T13:02:17.494Z,89.26
2018-01-20T13:04:44.928Z,89.96
2018-01-20T13:07:12.382Z,90.60
2018-01-20T13:09:39.837Z,90.16
2018-01-20T13:12:07.309Z,90.00
2018-01-20T13:14:34.749Z,89.74
2018-01-20T13:17:02.188Z,90.04
2018-01-20T13:19:29.661Z,90.16
2018-01-20T13:21:57.093Z,89.85
2018-01-20T13:24:24.796Z,90.51
2018-01-20T13:26:52.236Z,89.65
2018-01-20T13:29:19.702Z,90.30
2018-01-20T13:31:47.180Z,89.62
2018-01-20T13:34:14.613Z,90.53
2018-01-20T13:36:42.332Z,91.86
2018-01-20T13:39:09.792Z,91.04
2018-01-20T13:41:37.241Z,91.26
2018-01-20T13:44:04.733Z,91.15
2018-01-20T13:46:32.180Z,91.54
2018-01-20T13:48:59.761Z,91.33
2018-01-20T13:51:27.221Z,91.60
2018-01-20T13:53:54.678Z,91.65
2018-01-20T13:56:22.182Z,91.08
2018-01-20T13:58:49.618Z,92.15
2018-01-20T14:01:17.262Z,92.10
2018-01-20T14:03:44.787Z,92.14
2018-01-20T14:06:12.246Z,92.57
2018-01-20T14:08:39.729Z,92.87
2018-01-20T14:11:07.164Z,93.52
2018-01-20T14:13:34.724Z,93.90
2018-01-20T14:16:02.167Z,94.14
2018-01-20T14:18:29.612Z,93.96
2018-01-20T14:20:57.068Z,94.41
2018-01-20T14:23:24.501Z,93.34
2018-01-20T14:25:52.133Z,93.40
2018-01-20T14:28:19.592Z,93.98
2018-01-20T14:30:47.044Z,94.01
2018-01-20T14:33:14.573Z,93.20
2018-01-20T14:35:42.007Z,93.88
2018-01-20T14:38:09.672Z,94.02
2018-01-20T14:40:37.125Z,93.75
2018-01-20T14:43:04.565Z,94.37
2018-01-20T14:45:32.023Z,93.59
2018-01-20T14:47:59.465Z,94.16
2018-01-20T14:50:26.953Z,94.51
2018-01-20T14:52:54.397Z,94.41
2018-01-20T14:55:21.852Z,94.08
2018-01-20T14:57:49.325Z,94.79
2018-01-20T15:00:16.786Z,94.56
2018-01-20T15:02:44.357Z,94.68
2018-01-20T15:05:11.829Z,94.86
2018-01-20T15:07:39.264Z,94.44
2018-01-20T15:10:06.761Z,94.92
2018-01-20T15:12:34.193Z,94.43
2018-01-20T15:15:01.660Z,94.38
2018-01-20T15:17:29.133Z,94.65
2018-01-20T15:19:56.564Z,94.40
2018-01-20T15:22:24.022Z,94.79
2018-01-20T15:24:51.480Z,94.37
2018-01-20T15:27:18.944Z,94.06
2018-01-20T15:29:46.377Z,94.30
2018-01-20T15:32:13.813Z,94.27
2018-01-20T15:34:41.277Z,93.81
2018-01-20T15:37:08.709Z,93.53
2018-01-20T15:39:36.342Z,93.90
2018-01-20T15:42:03.801Z,93.61
2018-01-20T15:44:31.233Z,93.79
2018-01-20T15:46:58.710Z,93.79
2018-01-20T15:49:26.145Z,94.03
2018-01-20T15:51:53.649Z,93.77
2018-01-20T15:54:21.081Z,94.12
2018-01-20T15:56:48.536Z,94.31
2018-01-20T15:59:16.017Z,94.29
2018-01-20T16:01:43.452Z,94.35
2018-01-20T16:04:10.923Z,93.92
2018-01-20T16:06:38.361Z,94.35
2018-01-20T16:09:05.795Z,94.57
2018-01-20T16:11:33.250Z,94.38
2018-01-20T16:14:00.689Z,94.33
2018-01-20T16:16:28.286Z,94.44
2018-01-20T16:18:55.739Z,94.32
2018-01-20T16:21:23.177Z,94.10
2018-01-20T16:23:50.638Z,94.75
2018-01-20T16:26:18.089Z,94.74
2018-01-20T16:28:45.550Z,95.04
2018-01-20T16:31:13.037Z,94.54
2018-01-20T16:33:40.538Z,94.89
2018-01-20T16:36:07.988Z,94.37
2018-01-20T16:38:35.555Z,93.76
2018-01-20T16:41:02.985Z,93.44
2018-01-20T16:43:30.465Z,93.76
2018-01-20T16:45:59.300Z,93.71
2018-01-20T16:48:26.813Z,93.68
2018-01-20T16:50:54.265Z,94.01
2018-01-20T16:53:21.780Z,93.76
2018-01-20T16:55:49.245Z,93.66
2018-01-20T16:58:16.770Z,94.31
2018-01-20T17:00:44.232Z,93.62
2018-01-20T17:03:11.706Z,93.55
2018-01-20T17:05:39.136Z,93.69
2018-01-20T17:08:06.592Z,94.15
2018-01-20T17:10:34.053Z,93.63
2018-01-20T17:13:01.505Z,93.88
2018-01-20T17:15:28.969Z,93.63
2018-01-20T17:17:56.694Z,93.50
2018-01-20T17:20:24.263Z,92.80
2018-01-20T17:22:51.704Z,92.97
2018-01-20T17:25:19.325Z,93.07
2018-01-20T17:27:46.760Z,92.59
2018-01-20T17:30:14.197Z,93.07
2018-01-20T17:32:41.997Z,92.55
2018-01-20T17:35:09.458Z,92.00
2018-01-20T17:37:36.888Z,91.78
2018-01-20T17:40:04.528Z,92.09
2018-01-20T17:42:31.956Z,92.78
2018-01-20T17:44:59.453Z,92.72
2018-01-20T17:47:27.247Z,92.72
2018-01-20T17:49:54.682Z,92.97
2018-01-20T17:52:22.114Z,93.15
2018-01-20T17:54:49.868Z,93.03
2018-01-20T17:57:17.314Z,92.56
2018-01-20T17:59:44.787Z,92.66
2018-01-20T18:02:12.556Z,92.90
2018-01-20T18:04:40.010Z,92.85
2018-01-20T18:07:07.446Z,92.78
2018-01-20T18:09:35.232Z,92.45
2018-01-20T18:12:02.676Z,92.45
2018-01-20T18:14:30.109Z,92.94
2018-01-20T18:16:57.749Z,92.70
2018-01-20T18:19:25.237Z,92.70
2018-01-20T18:21:52.678Z,92.81
2018-01-20T18:24:21.360Z,93.35
2018-01-20T18:26:48.824Z,93.42
2018-01-20T18:29:16.264Z,92.17
2018-01-20T18:31:43.749Z,93.01
2018-01-20T18:34:11.201Z,93.26
2018-01-20T18:36:38.682Z,93.91
2018-01-20T18:39:06.164Z,94.10
2018-01-20T18:41:33.638Z,94.27
2018-01-20T18:44:01.106Z,93.69
2018-01-20T18:46:28.583Z,93.19
2018-01-20T18:48:56.126Z,93.60
2018-01-20T18:51:23.597Z,93.71
2018-01-20T18:53:51.037Z,93.31
2018-01-20T18:56:18.953Z,93.02
2018-01-20T18:58:46.390Z,91.92
2018-01-20T19:01:13.871Z,92.33
2018-01-20T19:03:41.425Z,92.28
2018-01-20T19:06:08.966Z,92.94
2018-01-20T19:08:36.445Z,93.33
2018-01-20T19:11:03.880Z,92.20
2018-01-20T19:13:31.340Z,92.88
2018-01-20T19:15:58.890Z,92.85
2018-01-20T19:18:26.413Z,92.89
2018-01-20T19:20:54.122Z,92.69
2018-01-20T19:23:21.754Z,92.17
2018-01-20T19:25:49.240Z,92.36
2018-01-20T19:28:16.788Z,92.29
2018-01-20T19:30:44.228Z,92.24
2018-01-20T19:33:12.118Z,92.05
2018-01-20T19:35:39.582Z,91.69
2018-01-20T19:38:07.020Z,92.05
2018-01-20T19:40:34.513Z,92.25
2018-01-20T19:43:02.037Z,92.24
2018-01-20T19:45:29.586Z,92.48
2018-01-20T19:47:57.027Z,93.38
2018-01-20T19:50:24.481Z,92.47
2018-01-20T19:52:51.934Z,92.05
2018-01-20T19:55:19.439Z,93.39
2018-01-20T19:57:46.933Z,92.44
2018-01-20T20:00:14.422Z,91.54
2018-01-20T20:02:41.907Z,92.06
2018-01-20T20:05:09.430Z,91.59
2018-01-20T20:07:36.865Z,91.56
2018-01-20T20:10:04.573Z,90.95
2018-01-20T20:12:32.081Z,91.36
2018-01-20T20:14:59.531Z,91.75
2018-01-20T20:17:27.030Z,92.59
2018-01-20T20:19:54.501Z,93.32
2018-01-20T20:22:22.148Z,92.62
2018-01-20T20:24:49.656Z,92.86
2018-01-20T20:27:17.105Z,93.49
2018-01-20T20:29:44.617Z,93.99
2018-01-20T20:32:12.078Z,93.94
2018-01-20T20:34:39.719Z,94.20
2018-01-20T20:37:07.156Z,94.06
2018-01-20T20:39:34.597Z,94.33
2018-01-20T20:42:02.097Z,94.98
2018-01-20T20:44:29.545Z,94.68
2018-01-20T20:46:57.012Z,94.26
2018-01-20T20:49:24.453Z,94.38
2018-01-20T20:51:51.896Z,94.32
2018-01-20T20:54:19.360Z,93.39
2018-01-20T20:56:46.829Z,93.41
2018-01-20T20:59:14.325Z,91.74
2018-01-20T21:01:41.777Z,90.88
2018-01-20T21:04:09.228Z,89.96
2018-01-20T21:06:36.684Z,90.05
2018-01-20T21:09:04.137Z,91.29
2018-01-20T21:11:31.790Z,90.97
2018-01-20T21:13:59.229Z,91.04
2018-01-20T21:16:26.685Z,90.94
2018-01-20T21:18:54.149Z,91.34
2018-01-20T21:21:21.599Z,90.11
2018-01-20T21:23:49.080Z,91.63
2018-01-20T21:26:16.669Z,92.50
2018-01-20T21:28:44.120Z,93.19
2018-01-20T21:31:11.588Z,93.78
2018-01-20T21:33:39.122Z,94.22
2018-01-20T21:36:06.740Z,94.59
2018-01-20T21:38:34.187Z,94.11
2018-01-20T21:41:01.651Z,94.26
2018-01-20T21:43:29.114Z,93.91
2018-01-20T21:45:56.572Z,93.96
2018-01-20T21:48:24.051Z,94.22
2018-01-20T21:50:51.494Z,93.98
2018-01-20T21:53:18.945Z,94.33
2018-01-20T21:55:46.409Z,94.06
2018-01-20T21:58:13.873Z,94.06
2018-01-20T22:00:41.492Z,93.57
2018-01-20T22:03:08.938Z,93.51
2018-01-20T22:05:36.381Z,93.90
2018-01-20T22:08:03.857Z,94.53
2018-01-20T22:10:31.297Z,94.47
2018-01-20T22:12:58.917Z,94.16
2018-01-20T22:15:26.356Z,93.95
2018-01-20T22:17:53.801Z,93.25
2018-01-20T22:20:21.297Z,93.63
2018-01-20T22:22:48.740Z,94.20
2018-01-20T22:25:16.220Z,94.07
2018-01-20T22:27:43.666Z,94.35
2018-01-20T22:30:11.114Z,93.76
2018-01-20T22:32:38.577Z,92.73
2018-01-20T22:35:06.017Z,92.74
2018-01-20T22:37:33.882Z,93.26
2018-01-20T22:40:01.393Z,93.48
2018-01-20T22:42:28.845Z,93.10
2018-01-20T22:44:56.310Z,93.51
2018-01-20T22:47:23.762Z,93.49
2018-01-20T22:49:51.269Z,93.39
2018-01-20T22:52:18.717Z,93.70
2018-01-20T22:54:46.171Z,94.27
2018-01-20T22:57:13.645Z,94.34
2018-01-20T22:59:41.089Z,93.85
2018-01-20T23:02:08.550Z,93.59
2018-01-20T23:04:35.992Z,93.83
2018-01-20T23:09:37.208Z,92.86
2018-01-20T23:12:04.650Z,92.52
2018-01-20T23:14:32.274Z,92.92
2018-01-20T23:16:59.717Z,92.92
2018-01-20T23:19:27.172Z,93.19
2018-01-20T23:21:54.644Z,93.18
2018-01-20T23:24:22.092Z,90.99
2018-01-20T23:26:49.658Z,92.93
2018-01-20T23:29:17.140Z,92.08
2018-01-20T23:31:44.641Z,91.07
2018-01-20T23:34:12.105Z,91.93
2018-01-20T23:36:39.547Z,92.40
2018-01-20T23:39:07.188Z,92.35
2018-01-20T23:41:34.648Z,92.97
2018-01-20T23:44:02.093Z,92.76
2018-01-20T23:46:29.578Z,93.31
2018-01-20T23:48:57.034Z,92.52
2018-01-20T23:51:24.837Z,92.55
2018-01-20T23:53:52.305Z,92.78
2018-01-20T23:56:20.314Z,92.29
2018-01-20T23:58:47.816Z,92.81
